DENGJ ENGK-ENHD
Flight info
| Callsign | DENGJ |
|---|---|
| Flight time | 1h 7m |
| Altitude | 8000 |
| Route | BEDIK DCT TUSRU |
| Aircraft | DA40/L-SDGRY/S |
Departure
| Time | 2026-05-06 18:35 |
|---|---|
| Airport | Arendal Airfield, Gullknapp (ENGK) |
Arrival
| Time | 2026-05-06 19:42 |
|---|---|
| Airport | Haugesund Airport, Karmøy (ENHD) |
| Time | Latitude | Longitude | Altitude | Speed | Heading |
|---|---|---|---|---|---|
| 2026-05-06 18:13 | 58.51549 | 8.70481 | 399 ft | 0 kts | 68° |
| 2026-05-06 18:30 | 58.51559 | 8.70474 | 400 ft | 5 kts | 263° |
| 2026-05-06 18:30 | 58.51551 | 8.70434 | 399 ft | 5 kts | 277° |
| 2026-05-06 18:30 | 58.51575 | 8.70388 | 399 ft | 6 kts | 321° |
| 2026-05-06 18:30 | 58.51597 | 8.70356 | 399 ft | 1 kts | 323° |
| 2026-05-06 18:32 | 58.51630 | 8.70309 | 400 ft | 9 kts | 324° |
| 2026-05-06 18:33 | 58.51668 | 8.70324 | 401 ft | 9 kts | 54° |
| 2026-05-06 18:33 | 58.51719 | 8.70456 | 402 ft | 16 kts | 56° |
| 2026-05-06 18:33 | 58.51785 | 8.70634 | 408 ft | 14 kts | 56° |
| 2026-05-06 18:33 | 58.51816 | 8.70715 | 409 ft | 3 kts | 322° |
| 2026-05-06 18:34 | 58.51817 | 8.70708 | 409 ft | 0 kts | 232° |
| 2026-05-06 18:34 | 58.51780 | 8.70621 | 407 ft | 33 kts | 232° |
| 2026-05-06 18:34 | 58.51561 | 8.70034 | 480 ft | 65 kts | 235° |
| 2026-05-06 18:34 | 58.51281 | 8.69244 | 653 ft | 80 kts | 235° |
| 2026-05-06 18:35 | 58.50955 | 8.68361 | 955 ft | 77 kts | 232° |
| 2026-05-06 18:35 | 58.50614 | 8.67538 | 1232 ft | 80 kts | 232° |
| 2026-05-06 18:35 | 58.50211 | 8.66729 | 1473 ft | 88 kts | 232° |
| 2026-05-06 18:35 | 58.49843 | 8.65835 | 1742 ft | 84 kts | 257° |
| 2026-05-06 18:36 | 58.49651 | 8.64794 | 2023 ft | 84 kts | 258° |
| 2026-05-06 18:36 | 58.49470 | 8.63728 | 2349 ft | 84 kts | 258° |
| 2026-05-06 18:36 | 58.49287 | 8.62607 | 2503 ft | 99 kts | 259° |
| 2026-05-06 18:36 | 58.49075 | 8.61254 | 2511 ft | 113 kts | 259° |
| 2026-05-06 18:37 | 58.48847 | 8.59761 | 2514 ft | 120 kts | 260° |
| 2026-05-06 18:37 | 58.48690 | 8.58713 | 2509 ft | 122 kts | 259° |
| 2026-05-06 18:37 | 58.48455 | 8.57143 | 2509 ft | 124 kts | 259° |
| 2026-05-06 18:37 | 58.48218 | 8.55545 | 2510 ft | 126 kts | 259° |
| 2026-05-06 18:38 | 58.47985 | 8.53931 | 2508 ft | 126 kts | 260° |
| 2026-05-06 18:38 | 58.47751 | 8.52333 | 2512 ft | 127 kts | 260° |
| 2026-05-06 18:38 | 58.47510 | 8.50701 | 2508 ft | 127 kts | 259° |
| 2026-05-06 18:38 | 58.47273 | 8.49055 | 2504 ft | 127 kts | 260° |
| 2026-05-06 18:39 | 58.47049 | 8.47476 | 2554 ft | 122 kts | 259° |
| 2026-05-06 18:39 | 58.46825 | 8.46052 | 2847 ft | 100 kts | 259° |
| 2026-05-06 18:39 | 58.46633 | 8.44903 | 3199 ft | 86 kts | 258° |
| 2026-05-06 18:40 | 58.46467 | 8.42664 | 3634 ft | 83 kts | 291° |
| 2026-05-06 18:40 | 58.46643 | 8.41632 | 3899 ft | 81 kts | 291° |
| 2026-05-06 18:40 | 58.46819 | 8.40603 | 4124 ft | 81 kts | 291° |
| 2026-05-06 18:40 | 58.46995 | 8.39581 | 4376 ft | 82 kts | 290° |
| 2026-05-06 18:41 | 58.47179 | 8.38517 | 4614 ft | 86 kts | 289° |
| 2026-05-06 18:41 | 58.47364 | 8.37429 | 4860 ft | 87 kts | 289° |
| 2026-05-06 18:41 | 58.47549 | 8.36330 | 5115 ft | 85 kts | 289° |
| 2026-05-06 18:41 | 58.47734 | 8.35255 | 5358 ft | 85 kts | 288° |
| 2026-05-06 18:42 | 58.47916 | 8.34181 | 5614 ft | 87 kts | 287° |
| 2026-05-06 18:42 | 58.48102 | 8.33070 | 5850 ft | 87 kts | 287° |
| 2026-05-06 18:42 | 58.48291 | 8.31958 | 6067 ft | 89 kts | 287° |
| 2026-05-06 18:42 | 58.48482 | 8.30826 | 6307 ft | 90 kts | 287° |
| 2026-05-06 18:43 | 58.48675 | 8.29683 | 6537 ft | 90 kts | 287° |
| 2026-05-06 18:43 | 58.48867 | 8.28546 | 6772 ft | 90 kts | 286° |
| 2026-05-06 18:43 | 58.49058 | 8.27415 | 7011 ft | 89 kts | 285° |
| 2026-05-06 18:43 | 58.49244 | 8.26306 | 7305 ft | 86 kts | 285° |
| 2026-05-06 18:44 | 58.49427 | 8.25219 | 7544 ft | 87 kts | 285° |
| 2026-05-06 18:44 | 58.49612 | 8.24126 | 7803 ft | 85 kts | 285° |
| 2026-05-06 18:44 | 58.49794 | 8.23040 | 8000 ft | 91 kts | 285° |
| 2026-05-06 18:44 | 58.50010 | 8.21763 | 8001 ft | 109 kts | 287° |
| 2026-05-06 18:45 | 58.50259 | 8.20323 | 8006 ft | 119 kts | 287° |
| 2026-05-06 18:45 | 58.50521 | 8.18792 | 8004 ft | 123 kts | 287° |
| 2026-05-06 18:45 | 58.50786 | 8.17218 | 8002 ft | 126 kts | 286° |
| 2026-05-06 18:45 | 58.51054 | 8.15620 | 8002 ft | 126 kts | 286° |
| 2026-05-06 18:46 | 58.51321 | 8.14026 | 7997 ft | 126 kts | 286° |
| 2026-05-06 18:46 | 58.51586 | 8.12441 | 8000 ft | 124 kts | 287° |
| 2026-05-06 18:46 | 58.51845 | 8.10888 | 8002 ft | 122 kts | 287° |
| 2026-05-06 18:46 | 58.52103 | 8.09342 | 8002 ft | 122 kts | 287° |
| 2026-05-06 18:47 | 58.52362 | 8.07792 | 8002 ft | 123 kts | 287° |
| 2026-05-06 18:47 | 58.52621 | 8.06236 | 7999 ft | 123 kts | 287° |
| 2026-05-06 18:47 | 58.52880 | 8.04680 | 8001 ft | 123 kts | 287° |
| 2026-05-06 18:47 | 58.53140 | 8.03118 | 8001 ft | 124 kts | 287° |
| 2026-05-06 18:48 | 58.53401 | 8.01544 | 8001 ft | 123 kts | 287° |
| 2026-05-06 18:48 | 58.53660 | 7.99985 | 8012 ft | 123 kts | 287° |
| 2026-05-06 18:48 | 58.53920 | 7.98421 | 8012 ft | 124 kts | 287° |
| 2026-05-06 18:48 | 58.54182 | 7.96842 | 8009 ft | 124 kts | 287° |
| 2026-05-06 18:49 | 58.54443 | 7.95262 | 8011 ft | 125 kts | 287° |
| 2026-05-06 18:49 | 58.54705 | 7.93681 | 8009 ft | 124 kts | 287° |
| 2026-05-06 18:49 | 58.54965 | 7.92103 | 8011 ft | 125 kts | 287° |
| 2026-05-06 18:49 | 58.55227 | 7.90517 | 8012 ft | 125 kts | 287° |
| 2026-05-06 18:50 | 58.55487 | 7.88943 | 8011 ft | 124 kts | 287° |
| 2026-05-06 18:50 | 58.55746 | 7.87375 | 8013 ft | 124 kts | 287° |
| 2026-05-06 18:50 | 58.56003 | 7.85809 | 8014 ft | 123 kts | 287° |
| 2026-05-06 18:50 | 58.56263 | 7.84231 | 8013 ft | 125 kts | 287° |
| 2026-05-06 18:51 | 58.56525 | 7.82636 | 8011 ft | 126 kts | 287° |
| 2026-05-06 18:51 | 58.56788 | 7.81036 | 8009 ft | 126 kts | 287° |
| 2026-05-06 18:51 | 58.57049 | 7.79443 | 8010 ft | 125 kts | 287° |
| 2026-05-06 18:51 | 58.57308 | 7.77863 | 8011 ft | 125 kts | 287° |
| 2026-05-06 18:52 | 58.57569 | 7.76277 | 8020 ft | 125 kts | 287° |
| 2026-05-06 18:52 | 58.57829 | 7.74685 | 8019 ft | 126 kts | 287° |
| 2026-05-06 18:52 | 58.58090 | 7.73092 | 8025 ft | 125 kts | 287° |
| 2026-05-06 18:52 | 58.58351 | 7.71496 | 8029 ft | 126 kts | 287° |
| 2026-05-06 18:53 | 58.58612 | 7.69887 | 8023 ft | 126 kts | 287° |
| 2026-05-06 18:53 | 58.58870 | 7.68304 | 8024 ft | 126 kts | 287° |
| 2026-05-06 18:53 | 58.59136 | 7.66680 | 8023 ft | 126 kts | 287° |
| 2026-05-06 18:53 | 58.59396 | 7.65079 | 8022 ft | 125 kts | 287° |
| 2026-05-06 18:54 | 58.59653 | 7.63504 | 8019 ft | 122 kts | 287° |
| 2026-05-06 18:54 | 58.59905 | 7.61946 | 8023 ft | 123 kts | 287° |
| 2026-05-06 18:54 | 58.60159 | 7.60383 | 8022 ft | 122 kts | 287° |
| 2026-05-06 18:54 | 58.60413 | 7.58821 | 8028 ft | 123 kts | 287° |
| 2026-05-06 18:55 | 58.60669 | 7.57242 | 8028 ft | 124 kts | 286° |
| 2026-05-06 18:55 | 58.60925 | 7.55656 | 8037 ft | 125 kts | 286° |
| 2026-05-06 18:55 | 58.61183 | 7.54062 | 8023 ft | 125 kts | 287° |
| 2026-05-06 18:55 | 58.61440 | 7.52455 | 8034 ft | 126 kts | 288° |
| 2026-05-06 18:56 | 58.61702 | 7.50851 | 8029 ft | 125 kts | 289° |
| 2026-05-06 18:56 | 58.61954 | 7.49292 | 8030 ft | 123 kts | 288° |
| 2026-05-06 18:56 | 58.62205 | 7.47723 | 8031 ft | 123 kts | 288° |
| 2026-05-06 18:56 | 58.62459 | 7.46150 | 8035 ft | 124 kts | 289° |
| 2026-05-06 18:57 | 58.62714 | 7.44573 | 8037 ft | 124 kts | 288° |
| 2026-05-06 18:57 | 58.62969 | 7.42992 | 8021 ft | 124 kts | 288° |
| 2026-05-06 18:57 | 58.63214 | 7.41437 | 8034 ft | 123 kts | 288° |
| 2026-05-06 18:57 | 58.63467 | 7.39882 | 8050 ft | 116 kts | 289° |
| 2026-05-06 18:58 | 58.63714 | 7.38379 | 8011 ft | 118 kts | 289° |
| 2026-05-06 18:58 | 58.63947 | 7.36890 | 8030 ft | 118 kts | 288° |
| 2026-05-06 18:58 | 58.64190 | 7.35364 | 8032 ft | 121 kts | 288° |
| 2026-05-06 18:58 | 58.64439 | 7.33811 | 8021 ft | 122 kts | 288° |
| 2026-05-06 18:59 | 58.64685 | 7.32268 | 8117 ft | 117 kts | 288° |
| 2026-05-06 18:59 | 58.64898 | 7.30922 | 8515 ft | 93 kts | 287° |
| 2026-05-06 18:59 | 58.65067 | 7.29827 | 8851 ft | 84 kts | 286° |
| 2026-05-06 18:59 | 58.65235 | 7.28750 | 9095 ft | 84 kts | 286° |
| 2026-05-06 19:00 | 58.65404 | 7.27680 | 9362 ft | 83 kts | 285° |
| 2026-05-06 19:00 | 58.65571 | 7.26629 | 9609 ft | 83 kts | 285° |
| 2026-05-06 19:00 | 58.65740 | 7.25572 | 9865 ft | 84 kts | 287° |
| 2026-05-06 19:00 | 58.66042 | 7.24585 | 10044 ft | 90 kts | 300° |
| 2026-05-06 19:01 | 58.66441 | 7.23498 | 10051 ft | 107 kts | 302° |
| 2026-05-06 19:01 | 58.66899 | 7.22275 | 10045 ft | 117 kts | 302° |
| 2026-05-06 19:01 | 58.67378 | 7.20971 | 10044 ft | 122 kts | 300° |
| 2026-05-06 19:01 | 58.67820 | 7.19573 | 10042 ft | 123 kts | 298° |
| 2026-05-06 19:02 | 58.68264 | 7.18155 | 10036 ft | 125 kts | 299° |
| 2026-05-06 19:02 | 58.68613 | 7.16651 | 10040 ft | 123 kts | 287° |
| 2026-05-06 19:02 | 58.69151 | 7.15354 | 10036 ft | 127 kts | 316° |
| 2026-05-06 19:02 | 58.69755 | 7.14146 | 10035 ft | 125 kts | 298° |
| 2026-05-06 19:03 | 58.70207 | 7.12713 | 10035 ft | 125 kts | 299° |
| 2026-05-06 19:03 | 58.70661 | 7.11279 | 10031 ft | 126 kts | 299° |
| 2026-05-06 19:03 | 58.71117 | 7.09834 | 10036 ft | 127 kts | 299° |
| 2026-05-06 19:03 | 58.71573 | 7.08390 | 10035 ft | 126 kts | 299° |
| 2026-05-06 19:04 | 58.72030 | 7.06944 | 10035 ft | 127 kts | 299° |
| 2026-05-06 19:04 | 58.72489 | 7.05493 | 10044 ft | 127 kts | 299° |
| 2026-05-06 19:04 | 58.72950 | 7.04035 | 10043 ft | 128 kts | 299° |
| 2026-05-06 19:04 | 58.73410 | 7.02579 | 10043 ft | 127 kts | 299° |
| 2026-05-06 19:05 | 58.73866 | 7.01130 | 10044 ft | 127 kts | 299° |
| 2026-05-06 19:05 | 58.74327 | 6.99671 | 10045 ft | 128 kts | 299° |
| 2026-05-06 19:05 | 58.74791 | 6.98201 | 10043 ft | 128 kts | 299° |
| 2026-05-06 19:05 | 58.75252 | 6.96735 | 10043 ft | 128 kts | 299° |
| 2026-05-06 19:06 | 58.75712 | 6.95275 | 10044 ft | 127 kts | 299° |
| 2026-05-06 19:06 | 58.76169 | 6.93819 | 10042 ft | 126 kts | 299° |
| 2026-05-06 19:06 | 58.76618 | 6.92389 | 10044 ft | 124 kts | 299° |
| 2026-05-06 19:06 | 58.77058 | 6.90993 | 10047 ft | 124 kts | 299° |
| 2026-05-06 19:07 | 58.77507 | 6.89566 | 10052 ft | 122 kts | 299° |
| 2026-05-06 19:07 | 58.77800 | 6.88633 | 10049 ft | 123 kts | 299° |
| 2026-05-06 19:07 | 58.78394 | 6.86734 | 10053 ft | 124 kts | 299° |
| 2026-05-06 19:07 | 58.78839 | 6.85315 | 10049 ft | 126 kts | 299° |
| 2026-05-06 19:08 | 58.79293 | 6.83865 | 10042 ft | 124 kts | 299° |
| 2026-05-06 19:08 | 58.79732 | 6.82463 | 10055 ft | 121 kts | 299° |
| 2026-05-06 19:08 | 58.80172 | 6.81058 | 10053 ft | 123 kts | 299° |
| 2026-05-06 19:08 | 58.80618 | 6.79636 | 10057 ft | 125 kts | 299° |
| 2026-05-06 19:09 | 58.81066 | 6.78198 | 10062 ft | 125 kts | 299° |
| 2026-05-06 19:09 | 58.81512 | 6.76774 | 10052 ft | 125 kts | 298° |
| 2026-05-06 19:09 | 58.81961 | 6.75326 | 10055 ft | 123 kts | 298° |
| 2026-05-06 19:09 | 58.82403 | 6.73916 | 10065 ft | 123 kts | 299° |
| 2026-05-06 19:10 | 58.82850 | 6.72488 | 10045 ft | 124 kts | 298° |
| 2026-05-06 19:10 | 58.83285 | 6.71079 | 10065 ft | 122 kts | 299° |
| 2026-05-06 19:10 | 58.83723 | 6.69676 | 10059 ft | 124 kts | 299° |
| 2026-05-06 19:10 | 58.84171 | 6.68234 | 10058 ft | 123 kts | 299° |
| 2026-05-06 19:11 | 58.84605 | 6.66840 | 10064 ft | 123 kts | 299° |
| 2026-05-06 19:11 | 58.85055 | 6.65391 | 10061 ft | 125 kts | 299° |
| 2026-05-06 19:11 | 58.85496 | 6.63971 | 10057 ft | 125 kts | 299° |
| 2026-05-06 19:11 | 58.85947 | 6.62521 | 10062 ft | 123 kts | 298° |
| 2026-05-06 19:12 | 58.86388 | 6.61095 | 10062 ft | 124 kts | 298° |
| 2026-05-06 19:12 | 58.86831 | 6.59669 | 10068 ft | 123 kts | 298° |
| 2026-05-06 19:12 | 58.87276 | 6.58233 | 10062 ft | 125 kts | 298° |
| 2026-05-06 19:12 | 58.87714 | 6.56811 | 10061 ft | 124 kts | 298° |
| 2026-05-06 19:13 | 58.88155 | 6.55389 | 10058 ft | 123 kts | 298° |
| 2026-05-06 19:13 | 58.88593 | 6.53976 | 10060 ft | 122 kts | 298° |
| 2026-05-06 19:13 | 58.89028 | 6.52572 | 10060 ft | 121 kts | 298° |
| 2026-05-06 19:13 | 58.89461 | 6.51169 | 10061 ft | 122 kts | 298° |
| 2026-05-06 19:14 | 58.89902 | 6.49739 | 10068 ft | 122 kts | 298° |
| 2026-05-06 19:14 | 58.90340 | 6.48322 | 10066 ft | 123 kts | 298° |
| 2026-05-06 19:14 | 58.90786 | 6.46875 | 10049 ft | 126 kts | 298° |
| 2026-05-06 19:14 | 58.91223 | 6.45449 | 10068 ft | 122 kts | 298° |
| 2026-05-06 19:15 | 58.91661 | 6.44028 | 10060 ft | 123 kts | 298° |
| 2026-05-06 19:15 | 58.92096 | 6.42620 | 10069 ft | 122 kts | 298° |
| 2026-05-06 19:15 | 58.92531 | 6.41204 | 10068 ft | 124 kts | 298° |
| 2026-05-06 19:15 | 58.92974 | 6.39763 | 10065 ft | 124 kts | 298° |
| 2026-05-06 19:16 | 58.93413 | 6.38330 | 10054 ft | 122 kts | 298° |
| 2026-05-06 19:16 | 58.93850 | 6.36908 | 9987 ft | 125 kts | 298° |
| 2026-05-06 19:16 | 58.94291 | 6.35480 | 9866 ft | 126 kts | 299° |
| 2026-05-06 19:16 | 58.94742 | 6.34012 | 9738 ft | 128 kts | 300° |
| 2026-05-06 19:17 | 58.95378 | 6.32865 | 9580 ft | 126 kts | 337° |
| 2026-05-06 19:17 | 58.96228 | 6.32683 | 9451 ft | 120 kts | 352° |
| 2026-05-06 19:17 | 58.97044 | 6.32664 | 9314 ft | 115 kts | 353° |
| 2026-05-06 19:17 | 58.97831 | 6.32650 | 9177 ft | 112 kts | 353° |
| 2026-05-06 19:18 | 58.98602 | 6.32632 | 9040 ft | 110 kts | 353° |
| 2026-05-06 19:18 | 58.99362 | 6.32614 | 8909 ft | 109 kts | 353° |
| 2026-05-06 19:18 | 59.00133 | 6.32586 | 8775 ft | 112 kts | 353° |
| 2026-05-06 19:18 | 59.00906 | 6.32555 | 8625 ft | 110 kts | 353° |
| 2026-05-06 19:19 | 59.01659 | 6.32524 | 8494 ft | 107 kts | 353° |
| 2026-05-06 19:19 | 59.02391 | 6.32491 | 8353 ft | 103 kts | 353° |
| 2026-05-06 19:19 | 59.03094 | 6.32459 | 8234 ft | 102 kts | 353° |
| 2026-05-06 19:19 | 59.03808 | 6.32418 | 8093 ft | 102 kts | 353° |
| 2026-05-06 19:20 | 59.04281 | 6.32391 | 8006 ft | 100 kts | 353° |
| 2026-05-06 19:20 | 59.04969 | 6.32344 | 7868 ft | 99 kts | 353° |
| 2026-05-06 19:20 | 59.05653 | 6.32249 | 7739 ft | 98 kts | 340° |
| 2026-05-06 19:20 | 59.06191 | 6.31475 | 7618 ft | 98 kts | 314° |
| 2026-05-06 19:21 | 59.06651 | 6.30497 | 7491 ft | 99 kts | 313° |
| 2026-05-06 19:21 | 59.07109 | 6.29507 | 7358 ft | 98 kts | 313° |
| 2026-05-06 19:21 | 59.07559 | 6.28522 | 7227 ft | 97 kts | 313° |
| 2026-05-06 19:21 | 59.08003 | 6.27543 | 7098 ft | 96 kts | 313° |
| 2026-05-06 19:22 | 59.08439 | 6.26571 | 6971 ft | 95 kts | 313° |
| 2026-05-06 19:22 | 59.08869 | 6.25601 | 6842 ft | 94 kts | 313° |
| 2026-05-06 19:22 | 59.09292 | 6.24639 | 6716 ft | 93 kts | 313° |
| 2026-05-06 19:22 | 59.09712 | 6.23672 | 6589 ft | 94 kts | 313° |
| 2026-05-06 19:23 | 59.10020 | 6.22551 | 6464 ft | 97 kts | 291° |
| 2026-05-06 19:23 | 59.10203 | 6.21264 | 6330 ft | 100 kts | 291° |
| 2026-05-06 19:23 | 59.10382 | 6.19985 | 6193 ft | 98 kts | 291° |
| 2026-05-06 19:23 | 59.10562 | 6.18713 | 6068 ft | 99 kts | 291° |
| 2026-05-06 19:24 | 59.10747 | 6.17411 | 5922 ft | 99 kts | 291° |
| 2026-05-06 19:24 | 59.10925 | 6.16161 | 5781 ft | 92 kts | 291° |
| 2026-05-06 19:24 | 59.11091 | 6.14974 | 5650 ft | 92 kts | 291° |
| 2026-05-06 19:24 | 59.11268 | 6.13739 | 5526 ft | 98 kts | 291° |
| 2026-05-06 19:25 | 59.11452 | 6.12448 | 5394 ft | 100 kts | 291° |
| 2026-05-06 19:25 | 59.11639 | 6.11137 | 5265 ft | 101 kts | 291° |
| 2026-05-06 19:25 | 59.11827 | 6.09812 | 5133 ft | 102 kts | 291° |
| 2026-05-06 19:25 | 59.12018 | 6.08476 | 5002 ft | 103 kts | 291° |
| 2026-05-06 19:26 | 59.12209 | 6.07121 | 4873 ft | 105 kts | 291° |
| 2026-05-06 19:26 | 59.12404 | 6.05752 | 4737 ft | 105 kts | 291° |
| 2026-05-06 19:26 | 59.12597 | 6.04386 | 4594 ft | 104 kts | 291° |
| 2026-05-06 19:26 | 59.12785 | 6.03043 | 4511 ft | 101 kts | 291° |
| 2026-05-06 19:27 | 59.12967 | 6.01737 | 4455 ft | 99 kts | 291° |
| 2026-05-06 19:27 | 59.13148 | 6.00447 | 4367 ft | 99 kts | 292° |
| 2026-05-06 19:27 | 59.13330 | 5.99161 | 4233 ft | 98 kts | 292° |
| 2026-05-06 19:27 | 59.13511 | 5.97876 | 4100 ft | 98 kts | 292° |
| 2026-05-06 19:28 | 59.13691 | 5.96593 | 3978 ft | 97 kts | 292° |
| 2026-05-06 19:28 | 59.13863 | 5.95344 | 3976 ft | 95 kts | 292° |
| 2026-05-06 19:28 | 59.14039 | 5.94077 | 3960 ft | 100 kts | 291° |
| 2026-05-06 19:28 | 59.14237 | 5.92677 | 3912 ft | 113 kts | 291° |
| 2026-05-06 19:29 | 59.14457 | 5.91130 | 3858 ft | 123 kts | 291° |
| 2026-05-06 19:29 | 59.14687 | 5.89492 | 3804 ft | 127 kts | 291° |
| 2026-05-06 19:29 | 59.14917 | 5.87841 | 3751 ft | 127 kts | 291° |
| 2026-05-06 19:29 | 59.15147 | 5.86186 | 3696 ft | 126 kts | 291° |
| 2026-05-06 19:30 | 59.15376 | 5.84537 | 3643 ft | 126 kts | 291° |
| 2026-05-06 19:30 | 59.15604 | 5.82894 | 3595 ft | 126 kts | 291° |
| 2026-05-06 19:30 | 59.15834 | 5.81245 | 3540 ft | 126 kts | 291° |
| 2026-05-06 19:30 | 59.16066 | 5.79583 | 3491 ft | 128 kts | 291° |
| 2026-05-06 19:31 | 59.16298 | 5.77906 | 3431 ft | 128 kts | 291° |
| 2026-05-06 19:31 | 59.16529 | 5.76245 | 3379 ft | 126 kts | 291° |
| 2026-05-06 19:31 | 59.16984 | 5.72963 | 3277 ft | 125 kts | 291° |
| 2026-05-06 19:32 | 59.17211 | 5.71322 | 3224 ft | 126 kts | 291° |
| 2026-05-06 19:32 | 59.17438 | 5.69677 | 3170 ft | 126 kts | 291° |
| 2026-05-06 19:32 | 59.17665 | 5.68037 | 3116 ft | 125 kts | 291° |
| 2026-05-06 19:32 | 59.17890 | 5.66404 | 3062 ft | 124 kts | 291° |
| 2026-05-06 19:33 | 59.18114 | 5.64784 | 3010 ft | 124 kts | 291° |
| 2026-05-06 19:33 | 59.18336 | 5.63166 | 2989 ft | 122 kts | 291° |
| 2026-05-06 19:33 | 59.18554 | 5.61576 | 3001 ft | 121 kts | 290° |
| 2026-05-06 19:33 | 59.18771 | 5.59993 | 3001 ft | 121 kts | 291° |
| 2026-05-06 19:34 | 59.18989 | 5.58411 | 3003 ft | 121 kts | 291° |
| 2026-05-06 19:34 | 59.19205 | 5.56826 | 3003 ft | 121 kts | 291° |
| 2026-05-06 19:34 | 59.19422 | 5.55242 | 3003 ft | 121 kts | 291° |
| 2026-05-06 19:34 | 59.19639 | 5.53654 | 3004 ft | 122 kts | 290° |
| 2026-05-06 19:35 | 59.19858 | 5.52050 | 3003 ft | 122 kts | 290° |
| 2026-05-06 19:35 | 59.20077 | 5.50442 | 3004 ft | 123 kts | 290° |
| 2026-05-06 19:35 | 59.20431 | 5.48970 | 3004 ft | 118 kts | 311° |
| 2026-05-06 19:35 | 59.20993 | 5.47814 | 3007 ft | 117 kts | 317° |
| 2026-05-06 19:36 | 59.21555 | 5.46703 | 3009 ft | 116 kts | 317° |
| 2026-05-06 19:36 | 59.22123 | 5.45580 | 3009 ft | 116 kts | 318° |
| 2026-05-06 19:36 | 59.22688 | 5.44461 | 3011 ft | 116 kts | 318° |
| 2026-05-06 19:36 | 59.23258 | 5.43331 | 2977 ft | 119 kts | 317° |
| 2026-05-06 19:37 | 59.23851 | 5.42159 | 2833 ft | 121 kts | 318° |
| 2026-05-06 19:37 | 59.24434 | 5.41010 | 2680 ft | 118 kts | 318° |
| 2026-05-06 19:37 | 59.25007 | 5.39874 | 2525 ft | 117 kts | 318° |
| 2026-05-06 19:37 | 59.25553 | 5.38785 | 2488 ft | 109 kts | 318° |
| 2026-05-06 19:38 | 59.26087 | 5.37722 | 2363 ft | 111 kts | 318° |
| 2026-05-06 19:38 | 59.26632 | 5.36638 | 2212 ft | 112 kts | 318° |
| 2026-05-06 19:38 | 59.27180 | 5.35549 | 2055 ft | 112 kts | 317° |
| 2026-05-06 19:38 | 59.27728 | 5.34457 | 1899 ft | 113 kts | 317° |
| 2026-05-06 19:39 | 59.28279 | 5.33359 | 1736 ft | 113 kts | 317° |
| 2026-05-06 19:39 | 59.28825 | 5.32272 | 1572 ft | 109 kts | 317° |
| 2026-05-06 19:39 | 59.29340 | 5.31246 | 1426 ft | 103 kts | 317° |
| 2026-05-06 19:39 | 59.29835 | 5.30258 | 1281 ft | 101 kts | 317° |
| 2026-05-06 19:40 | 59.30321 | 5.29286 | 1140 ft | 100 kts | 317° |
| 2026-05-06 19:40 | 59.30805 | 5.28320 | 987 ft | 99 kts | 317° |
| 2026-05-06 19:40 | 59.31287 | 5.27357 | 866 ft | 95 kts | 315° |
| 2026-05-06 19:40 | 59.31736 | 5.26453 | 711 ft | 91 kts | 314° |
| 2026-05-06 19:41 | 59.32151 | 5.25555 | 578 ft | 83 kts | 313° |
| 2026-05-06 19:41 | 59.32523 | 5.24807 | 470 ft | 75 kts | 316° |
| 2026-05-06 19:41 | 59.32888 | 5.24086 | 389 ft | 73 kts | 316° |
| 2026-05-06 19:41 | 59.33240 | 5.23388 | 285 ft | 72 kts | 316° |
| 2026-05-06 19:42 | 59.33602 | 5.22679 | 173 ft | 74 kts | 316° |
| 2026-05-06 19:42 | 59.33951 | 5.21984 | 86 ft | 64 kts | 316° |
| 2026-05-06 19:42 | 59.34161 | 5.21565 | 82 ft | 17 kts | 315° |
| 2026-05-06 19:42 | 59.34224 | 5.21459 | 81 ft | 12 kts | 343° |
| 2026-05-06 19:43 | 59.34278 | 5.21499 | 84 ft | 6 kts | 45° |
| 2026-05-06 19:43 | 59.34319 | 5.21577 | 84 ft | 6 kts | 42° |
| 2026-05-06 19:43 | 59.34371 | 5.21561 | 83 ft | 10 kts | 316° |
| 2026-05-06 19:43 | 59.34416 | 5.21470 | 81 ft | 8 kts | 313° |
| 2026-05-06 19:44 | 59.34456 | 5.21404 | 81 ft | 6 kts | 347° |
| 2026-05-06 19:44 | 59.34495 | 5.21415 | 83 ft | 5 kts | 13° |
| 2026-05-06 19:44 | 59.34518 | 5.21425 | 81 ft | 1 kts | 11° |